Blue Oak Ranch Reserve, California Weather observations

Data are for 10 minute period ending at time listed.
 Day   Time   Solar   Ave.   Ave.  Ave.  Vector  Max.   Baro.   Total    
  of    of     Rad.   Air    Rel.  Wind   Wind   Wind  Press.  Precip.   
Year   Day            Temp.  Hum.  Speed  Dir.   Gust                    
2015   (PST)  Kw/m2    F      %     mph   deg.    mph    mb.     in.     
-------------------------------------------------------------------------
  86   14:10   0.74   72.3    55    5.8   234     9.6   952.7    0.00 
  86   14:20   0.72   71.9    55    5.3   261     9.3   952.7    0.00 
  86   14:30   0.70   71.8    56    3.8   251     8.1   952.7    0.00 
  86   14:40   0.67   72.1    56    4.5   233     9.1   952.6    0.00 
  86   14:50   0.65   71.5    57    5.6   251    11.9   952.5    0.00 
  86   15:00   0.63   69.4    59    6.8   267    11.9   952.6    0.00 
  86   15:10   0.60   69.3    59    5.3   245     9.6   952.6    0.00 
  86   15:20   0.57   69.0    60    4.9   228     9.1   952.6    0.00 
  86   15:30   0.54   69.2    59    4.9   228     9.9   952.6    0.00 
  86   15:40   0.51   69.2    58    5.7   246     9.3   952.6    0.00 
  86   15:50   0.48   69.5    56    6.4   271     9.8   952.7    0.00 
  86   16:00   0.45   68.4    57    8.2   293    11.8   952.7    0.00 
  86   16:10   0.42   68.4    57    6.1   270     9.9   952.7    0.00 
  86   16:20   0.39   68.0    55    7.3   274    11.9   952.8    0.00 
  86   16:30   0.35   67.4    49    8.3   278    13.0   952.8    0.00 
  86   16:40   0.32   67.2    46    7.4   282    11.1   952.8    0.00 
  86   16:50   0.29   67.0    45    6.4   293    10.0   952.8    0.00 
  86   17:00   0.26   67.3    44    5.0   283     9.1   952.8    0.00 
  86   17:10   0.22   67.4    43    5.6   285     8.9   952.7    0.00 
  86   17:20   0.19   67.0    43    6.4   280     9.3   952.7    0.00 
  86   17:30   0.16   66.5    44    6.2   281     8.7   952.6    0.00 
  86   17:40   0.13   65.9    44    5.0   281     7.8   952.4    0.00 
  86   17:50   0.09   65.7    44    4.9   280     7.3   952.3    0.00 
  86   18:00   0.07   64.8    45    4.3   288     6.3   952.2    0.00 
  86   18:10   0.03   63.7    51    3.2   268     5.3   952.2    0.00 
  86   18:20   0.01   60.8    62    0.9   280     3.0   952.1    0.00 
  86   18:30   0.01   58.4    62    0.9    37     2.3   952.0    0.00 
  86   18:40   0.00   56.6    62    1.0    72     1.8   952.0    0.00 
  86   18:50   0.00   55.1    67    1.8   297     2.6   952.1    0.00 
  86   19:00   0.00   54.2    68    1.5   306     2.9   952.3    0.00 
  86   19:10   0.00   53.6    70    0.9     0     2.2   952.4    0.00 
  86   19:20   0.00   53.2    72    0.6    32     1.5   952.6    0.00 
  86   19:30   0.00   51.9    75    1.2   324     2.6   952.9    0.00 
  86   19:40   0.00   50.6    76    1.1    92     2.5   953.1    0.00 
  86   19:50   0.00   50.4    75    1.1    56     3.1   953.2    0.00 
  86   20:00   0.00   49.9    76    1.1    50     2.9   953.2    0.00 
  86   20:10   0.00   48.9    80    2.1   284     2.9   953.4    0.00 
  86   20:20   0.00   48.6    82    1.3    40     2.8   953.6    0.00 
  86   20:30   0.00   48.5    82    1.0    30     2.3   953.8    0.00 
  86   20:40   0.00   48.5    83    1.3   298     2.2   953.9    0.00 
  86   20:50   0.00   47.7    84    1.1    84     2.4   953.9    0.00 
  86   21:00   0.00   47.5    85    0.6   340     1.9   953.9    0.00 
  86   21:10   0.00   46.6    85    1.9    63     3.4   953.9    0.00 
  86   21:20   0.00   46.4    86    0.6   321     1.8   953.9    0.00 
  86   21:30   0.00   46.1    87    1.4   284     2.7   954.0    0.00 
  86   21:40   0.00   45.9    88    2.3    38     4.0   954.1    0.00 
  86   21:50   0.00   45.9    88    2.3   310     3.4   953.9    0.00 
  86   22:00   0.00   45.2    89    1.8   283     3.7   953.8    0.00 
  86   22:10   0.00   45.0    89    0.6   296     2.1   953.7    0.00 
  86   22:20   0.00   44.6    90    2.9   294     5.2   953.7    0.00 
  86   22:30   0.00   44.3    90    2.0   296     4.4   953.6    0.00 
  86   22:40   0.00   44.0    90    1.8    63     3.0   953.5    0.00 
  86   22:50   0.00   44.0    89    1.6   284     3.4   953.4    0.00 
  86   23:00   0.00   43.8    89    1.6    50     3.7   953.4    0.00 
  86   23:10   0.00   43.5    88    0.2    80     2.0   953.5    0.00 
  86   23:20   0.00   43.7    88    2.0    59     4.3   953.6    0.00 
  86   23:30   0.00   44.4    83    2.0    57     4.1   953.6    0.00 
  86   23:40   0.00   43.6    87    1.6   341     4.1   953.5    0.00 
  86   23:50   0.00   43.8    87    1.3   296     4.2   953.5    0.00 
  87    0:00   0.00   44.2    85    0.4   354     2.0   953.4    0.00 
  87    0:10   0.00   44.3    85    0.9   280     3.1   953.5    0.00 
  87    0:20   0.00   44.3    84    1.5    25     4.3   953.5    0.00 
  87    0:30   0.00   44.9    82    1.5    39     4.0   953.5    0.00 
  87    0:40   0.00   44.1    84    0.8   297     2.0   953.6    0.00 
  87    0:50   0.00   43.8    84    2.2    69     3.4   953.5    0.00 
  87    1:00   0.00   43.8    84    1.3    45     3.4   953.3    0.00 
  87    1:10   0.00   43.8    85    0.8   305     3.8   953.2    0.00 
  87    1:20   0.00   44.4    83    0.7   275     3.1   953.1    0.00 
  87    1:30   0.00   44.2    84    2.5   298     4.5   953.1    0.00 
  87    1:40   0.00   44.0    83    1.3    53     3.6   953.1    0.00 
  87    1:50   0.00   44.3    77    0.6    22     1.5   952.9    0.00 
  87    2:00   0.00   45.0    74    0.6   331     2.9   952.8    0.00 
  87    2:10   0.00   45.6    71    0.4   356     2.3   952.8    0.00 
  87    2:20   0.00   45.4    67    0.5     4     1.9   952.8    0.00 
  87    2:30   0.00   46.5    68    2.2   257     4.7   952.8    0.00 
  87    2:40   0.00   46.6    70    3.0   308     5.3   952.8    0.00 
  87    2:50   0.00   46.5    69    1.5     5     2.8   952.8    0.00 
  87    3:00   0.00   44.6    71    1.3    92     2.3   952.8    0.00 
  87    3:10   0.00   44.5    72    0.7   331     2.2   952.7    0.00 
  87    3:20   0.00   44.2    73    1.2   293     2.6   952.8    0.00 
  87    3:30   0.00   43.8    72    0.5   109     1.5   952.8    0.00 
  87    3:40   0.00   43.3    73    0.9   286     3.5   952.7    0.00 
  87    3:50   0.00   42.4    79    1.9   303     3.4   952.7    0.00 
  87    4:00   0.00   42.5    76    1.0    55     2.0   952.6    0.00 
  87    4:10   0.00   42.0    78    1.5    56     2.6   952.6    0.00 
  87    4:20   0.00   41.6    81    0.6   314     1.8   952.5    0.00 
  87    4:30   0.00   41.3    83    0.4   282     1.1   952.4    0.00 
  87    4:40   0.00   41.5    84    1.0   320     1.9   952.2    0.00 
  87    4:50   0.00   41.3    84    0.4   189     1.8   952.3    0.00 
  87    5:00   0.00   41.0    85    1.8     2     3.7   952.5    0.00 
  87    5:10   0.00   41.0    86    1.6   293     2.9   952.6    0.00 
  87    5:20   0.00   40.6    86    1.2    22     2.9   952.6    0.00 
  87    5:30   0.00   40.9    87    0.4    60     1.8   952.5    0.00 
  87    5:40   0.00   40.6    86    2.7   297     4.7   952.5    0.00 
  87    5:50   0.00   39.7    89    1.2    78     3.1   952.5    0.00 
  87    6:00   0.01   40.7    87    1.5   301     3.0   952.6    0.00 
  87    6:10   0.01   40.8    86    0.7   330     2.5   952.7    0.00 
  87    6:20   0.03   41.0    86    0.4   182     1.8   952.8    0.00 
  87    6:30   0.03   41.3    84    0.8   282     1.5   952.8    0.00 
  87    6:40   0.04   41.2    86    1.1    26     2.5   952.8    0.00 
  87    6:50   0.05   41.5    86    1.8   289     4.4   952.7    0.00 
  87    7:00   0.11   42.9    85    1.3   303     4.3   952.9    0.00 
  87    7:10   0.20   45.4    79    1.5    82     3.4   953.0    0.00 
  87    7:20   0.21   50.5    69    0.6    94     2.1   953.2    0.00 
  87    7:30   0.27   53.4    63    1.1   155     2.0   953.3    0.00 
  87    7:40   0.30   55.9    61    1.4   274     2.6   953.2    0.00 
  87    7:50   0.33   57.0    66    1.9   261     4.0   953.1    0.00 
  87    8:00   0.36   58.0    64    0.8   109     2.9   952.9    0.00 
  87    8:10   0.43   59.0    59    1.2   240     2.7   952.8    0.00 
  87    8:20   0.44   60.5    58    1.3   273     3.1   952.7    0.00 
  87    8:30   0.38   60.9    61    3.3   236     5.1   952.7    0.00 
  87    8:40   0.43   60.3    60    4.1   248     7.7   952.8    0.00 
  87    8:50   0.52   60.9    57    5.7   275     9.2   952.9    0.00 
  87    9:00   0.49   62.4    55    6.0   277     8.8   953.0    0.00 
  87    9:10   0.45   61.7    57    8.0   284    12.5   953.2    0.00 
  87    9:20   0.52   61.2    60    7.5   269    12.2   953.2    0.00 
  87    9:30   0.58   61.7    61    7.2   268    11.3   953.4    0.00 
  87    9:40   0.62   62.2    58    8.6   283    12.9   953.5    0.00 
  87    9:50   0.64   62.7    56    9.6   290    14.2   953.6    0.00 
  87   10:00   0.63   62.8    54   10.8   286    14.4   953.7    0.00 
  87   10:10   0.69   63.2    50   11.7   289    15.1   953.9    0.00 
  87   10:20   0.70   64.1    48   10.3   284    15.3   954.0    0.00 
  87   10:30   0.71   65.6    48    7.3   277    11.6   954.0    0.00 
  87   10:40   0.67   65.5    50    7.5   274    14.0   954.0    0.00 
  87   10:50   0.78   66.1    48    8.1   276    14.4   954.0    0.00 
  87   11:00   0.74   66.0    41   11.5   291    17.2   954.0    0.00 
  87   11:10   0.73   66.4    40   10.5   286    15.1   954.0    0.00 
  87   11:20   0.84   67.3    40    9.5   278    14.3   954.0    0.00 
  87   11:30   0.83   68.2    39   10.9   286    15.6   953.9    0.00 
  87   11:40   0.85   68.6    38   11.8   283    15.9   953.9    0.00 
  87   11:50   0.83   68.7    40   10.0   283    13.9   953.8    0.00 
  87   12:00   0.83   69.6    38   10.2   282    15.1   953.8    0.00 
  87   12:10   0.87   70.1    40    8.3   268    15.4   953.6    0.00 
  87   12:20   0.86   70.0    44    7.4   244    13.1   953.4    0.00 
  87   12:30   0.85   69.5    47    6.7   249    13.4   953.4    0.00 
  87   12:40   0.85   71.0    41    6.7   261    11.5   953.1    0.00 
  87   12:50   0.82   72.3    37    9.0   277    15.0   953.0    0.00 
  87   13:00   0.78   72.3    39    8.7   271    15.3   953.0    0.00 
  87   13:10   0.81   71.4    47    5.9   252    12.6   952.7    0.00 
  87   13:20   0.74   70.8    48    5.4   252    11.6   952.7    0.00 
  87   13:30   0.80   71.1    48    5.6   249     9.8   952.7    0.00 
  87   13:40   0.80   70.7    48    6.2   234    12.3   952.7    0.00 
  87   13:50   0.78   71.0    44    7.2   256    13.9   952.5    0.00 
  87   14:00   0.77   72.6    35    8.7   265    14.9   952.4    0.00 

Return to Blue Oak Ranch Reserve graphs page.


Western Regional Climate Center,wrcc@dri.edu